Flight Track Log - Related Links

Times and Time Zones

All times are in EDT time to prevent confusion due to time zone crossing. See the JZA8121 flight status page for this flight to view local times or setup timezone preferences in your user account.

Time Position Orientation Groundspeed Altitude Reporting Facility
EDT Latitude Longitude Course Direction KTS MPH feet Rate Location/Type
Sat 11:54:00 AM 49.1667 -123.1833 156° South 90 104 700  Level Vancouver Center
Sat 11:55:00 AM 49.1333 -123.2333 224° Southwest 160 184 1,800 1,050 Climbing Vancouver Center
Sat 11:56:00 AM 49.1000 -123.2667 213° Southwest 170 196 2,800 1,150 Climbing Vancouver Center
Sat 11:57:00 AM 49.0500 -123.2833 192° South 180 207 4,100 1,200 Climbing Vancouver Center
Sat 11:58:00 AM 48.8388 -123.0185 168° South  Level FlightAware Approximate
Sat 11:58:00 AM 49.0167 -123.2667 162° South 180 207 5,200  Level Vancouver Center
Sat 11:59:00 AM 48.7780 -122.9965 156° South  Level FlightAware Approximate
Sat 11:59:00 AM 48.9667 -123.2333 156° South 190 219 6,600  Level Vancouver Center
Sat 12:00:00 PM 48.9167 -123.1833 147° Southeast 190 219 7,800 1,200 Climbing Vancouver Center
Sat 12:01:00 PM 48.8667 -123.1667 168° South 190 219 9,000 1,100 Climbing Vancouver Center
Sat 12:02:00 PM 48.8333 -123.1167 135° Southeast 190 219 10,000 1,000 Climbing Vancouver Center
Sat 12:03:00 PM 48.8000 -123.0333 121° Southeast 200 230 11,000 1,050 Climbing Vancouver Center
Sat 12:04:00 PM 48.7500 -123.0167 168° South 200 230 12,100 1,050 Climbing Vancouver Center
Sat 12:05:00 PM 48.6833 -122.9667 154° Southeast 220 253 13,100 1,050 Climbing Vancouver Center
Sat 12:06:00 PM 48.6333 -122.9333 156° South 230 265 14,200 1,050 Climbing Vancouver Center
Sat 12:07:00 PM 48.5667 -122.9167 171° South 230 265 15,200 911 Climbing Vancouver Center
Sat 12:07:52 PM 48.5394 -122.8894 146° Southeast 235 270 15,900 850 Climbing Seattle Center
Sat 12:08:53 PM 48.4761 -122.8567 161° South 241 277 16,800 836 Climbing Seattle Center
Sat 12:09:54 PM 48.4119 -122.8211 160° South 246 283 17,600 689 Climbing Seattle Center
Sat 12:10:55 PM 48.3342 -122.7792 160° South 249 287 18,200 639 Climbing Seattle Center
Sat 12:11:56 PM 48.2664 -122.7433 161° South 256 295 18,900 689 Climbing Seattle Center
Sat 12:12:57 PM 48.1986 -122.7081 161° South 260 299 19,600 738 Climbing Seattle Center
Sat 12:13:58 PM 48.1311 -122.6725 161° South 261 300 20,400 694 Climbing Seattle Center
Sat 12:14:58 PM 48.0642 -122.6361 160° South 258 297 21,000 645 Climbing Seattle Center
Sat 12:15:59 PM 47.9942 -122.6008 161° South 266 306 21,700 590 Climbing Seattle Center
Sat 12:17:00 PM 47.9261 -122.5639 160° South 265 305 22,200 492 Climbing Seattle Center
Sat 12:18:01 PM 47.8564 -122.5278 161° South 268 308 22,700 393 Climbing Seattle Center
Sat 12:19:02 PM 47.7711 -122.4833 161° South 272 313 23,000 148 Climbing Seattle Center
Sat 12:20:03 PM 47.6964 -122.4450 161° South 287 330 23,000  Level Seattle Center
Sat 12:21:04 PM 47.6178 -122.4042 161° South 297 342 23,000  Level Seattle Center
Sat 12:22:05 PM 47.5436 -122.3661 161° South 306 352 23,000  Level Seattle Center
Sat 12:23:06 PM 47.4639 -122.3247 161° South 307 353 23,000  Level Seattle Center
Sat 12:24:07 PM 47.3603 -122.3094 174° South 321 369 23,000  Level Seattle Center
Sat 12:25:08 PM 47.2697 -122.3108 181° South 325 374 23,000  Level Seattle Center
Sat 12:26:09 PM 47.1786 -122.3108 180° South 328 377 23,000  Level Seattle Center
Sat 12:27:10 PM 47.0875 -122.3100 180° South 330 380 23,000  Level Seattle Center
Sat 12:28:10 PM 46.9958 -122.3106 180° South 333 383 23,000  Level Seattle Center
Sat 12:29:11 PM 46.9056 -122.3106 180° South 328 377 23,000 -541 Level Seattle Center
Sat 12:30:12 PM 46.8144 -122.3103 180° South 329 379 21,900 -1,279 Descending Seattle Center
Sat 12:31:13 PM 46.7189 -122.3103 180° South 342 394 20,400 -1,672 Descending Seattle Center
Sat 12:32:14 PM 46.6022 -122.3131 181° South 350 403 18,500 -1,230 Descending Seattle Center
Sat 12:33:15 PM 46.5111 -122.3106 179° South 336 387 17,900 -836 Descending Seattle Center
Sat 12:34:16 PM 46.4228 -122.3092 179° South 325 374 16,800 -1,426 Descending Seattle Center
Sat 12:35:17 PM 46.3281 -122.3108 181° South 341 392 15,000 -1,525 Descending Seattle Center
Sat 12:36:18 PM 46.2394 -122.3158 182° South 326 375 13,700 -1,099 Descending Seattle Center
Sat 12:37:28 PM 46.1408 -122.3750 203° Southwest 299 344 12,600 -779 Descending Seattle Center
Sat 12:38:29 PM 46.0653 -122.4189 202° Southwest 293 337 12,000 -589 Descending Seattle Center
Sat 12:39:20 PM 46.0083 -122.4464 199° South 289 333 11,500 -1,125 Descending Seattle Center
Sat 12:40:21 PM 45.9294 -122.4889 201° Southwest 299 344 9,900 -1,563 Descending Seattle Center
Sat 12:41:19 PM 45.8450 -122.5414 203° Southwest 306 352 8,400 -1,513 Descending Seattle Center
Sat 12:42:20 PM 45.7747 -122.5794 201° Southwest 264 304 6,900 -1,475 Descending Seattle Center
Sat 12:43:21 PM 45.7211 -122.5397 153° Southeast 206 237 5,400 -1,392 Descending Seattle Center
Sat 12:44:25 PM 45.6769 -122.4886 141° Southeast 229 264 4,000 -694 Descending Seattle Center
Sat 12:45:22 PM 45.6331 -122.4367 140° Southeast 177 204 4,000  Level Seattle Center
Sat 12:46:23 PM 45.5944 -122.3969 144° Southeast 169 194 4,000 -703 Level Seattle Center
Sat 12:47:30 PM 45.5433 -122.4428 212° Southwest 220 253 2,500 -1,343 Descending Seattle Center

Login

Don't have an account? Register now (free) for customized features, flight alerts, and more!